Rimbey, Canada
Current Conditions -  °F | °C
As of 6:00 PM on Monday 24 Nov 2014 (Local Time) from CYQF Reporting Station
Overcast Overcast  
Wind Chill: 20°   Ceiling: 14000
Heat Index: 30°   Visibility: 15mi
Dew Point: 25°   Wind: 13mph
Humidity: 80%   Direction: 170°S
Pressure: 29.75"   Gusts: NA
Location:  52.63°N, 114.22°W
Report Text: CYQF 250100Z 17011KT 15SM OVC140 M01/M04 A2975 RMK AC8 PRESFR SLP117
Loading
Personal Weather Stations






























Interactive Weather Map New forecast layout! Learn more

10-Day Weather Forecast

Advertisements
Track Severe Weather on mobile